sensor_id;sensor_type;location;lat;lon;timestamp;P1;durP1;ratioP1;P2;durP2;ratioP2
51491;SDS011;37569;50.548;8.778;2022-07-24T00:00:22;4.7;;;3.9;;
51491;SDS011;37569;50.548;8.778;2022-07-24T00:05:23;5.5;;;3.7;;
51491;SDS011;37569;50.548;8.778;2022-07-24T00:10:24;7.6;;;3.9;;
51491;SDS011;37569;50.548;8.778;2022-07-24T00:15:25;4.2;;;3.4;;
51491;SDS011;37569;50.548;8.778;2022-07-24T00:20:25;4.7;;;3.8;;
51491;SDS011;37569;50.548;8.778;2022-07-24T00:25:26;4.3;;;3.7;;
51491;SDS011;37569;50.548;8.778;2022-07-24T00:30:27;4.1;;;3.4;;
51491;SDS011;37569;50.548;8.778;2022-07-24T00:35:28;5.2;;;3.7;;
51491;SDS011;37569;50.548;8.778;2022-07-24T00:40:28;4.2;;;3.5;;
51491;SDS011;37569;50.548;8.778;2022-07-24T00:45:29;3.9;;;3.5;;
51491;SDS011;37569;50.548;8.778;2022-07-24T00:50:30;6.5;;;3.8;;
51491;SDS011;37569;50.548;8.778;2022-07-24T00:55:30;4.3;;;3.9;;
51491;SDS011;37569;50.548;8.778;2022-07-24T01:00:31;5.8;;;4.2;;
51491;SDS011;37569;50.548;8.778;2022-07-24T01:05:32;4.1;;;3.6;;
51491;SDS011;37569;50.548;8.778;2022-07-24T01:10:33;5.1;;;4.1;;
51491;SDS011;37569;50.548;8.778;2022-07-24T01:15:33;7.2;;;5.4;;
51491;SDS011;37569;50.548;8.778;2022-07-24T01:20:35;5.3;;;4.7;;
51491;SDS011;37569;50.548;8.778;2022-07-24T01:25:35;5.9;;;4.8;;
51491;SDS011;37569;50.548;8.778;2022-07-24T01:30:35;7.3;;;5;;
51491;SDS011;37569;50.548;8.778;2022-07-24T01:35:36;7.8;;;5.3;;
51491;SDS011;37569;50.548;8.778;2022-07-24T01:40:37;7.3;;;5.4;;
51491;SDS011;37569;50.548;8.778;2022-07-24T01:45:37;6.5;;;5.1;;
51491;SDS011;37569;50.548;8.778;2022-07-24T01:50:38;7.5;;;5.2;;
51491;SDS011;37569;50.548;8.778;2022-07-24T01:55:39;5.9;;;5.3;;
51491;SDS011;37569;50.548;8.778;2022-07-24T02:00:39;6.5;;;5.9;;
51491;SDS011;37569;50.548;8.778;2022-07-24T02:05:40;7.4;;;5.8;;
51491;SDS011;37569;50.548;8.778;2022-07-24T02:10:41;6.4;;;5.7;;
51491;SDS011;37569;50.548;8.778;2022-07-24T02:15:42;6.3;;;5.7;;
51491;SDS011;37569;50.548;8.778;2022-07-24T02:20:42;6.2;;;5.6;;
51491;SDS011;37569;50.548;8.778;2022-07-24T02:25:43;5.9;;;5.3;;
51491;SDS011;37569;50.548;8.778;2022-07-24T02:30:44;6.6;;;5.8;;
51491;SDS011;37569;50.548;8.778;2022-07-24T02:35:45;6.4;;;5.8;;
51491;SDS011;37569;50.548;8.778;2022-07-24T02:40:45;6.4;;;5.7;;
51491;SDS011;37569;50.548;8.778;2022-07-24T02:45:46;6.9;;;6.2;;
51491;SDS011;37569;50.548;8.778;2022-07-24T02:50:47;7.4;;;6;;
51491;SDS011;37569;50.548;8.778;2022-07-24T02:55:47;6.9;;;6.2;;
51491;SDS011;37569;50.548;8.778;2022-07-24T03:00:48;6.9;;;6.2;;
51491;SDS011;37569;50.548;8.778;2022-07-24T03:05:49;7.1;;;6.4;;
51491;SDS011;37569;50.548;8.778;2022-07-24T03:10:49;7.3;;;6.6;;
51491;SDS011;37569;50.548;8.778;2022-07-24T03:15:50;7.6;;;6.7;;
51491;SDS011;37569;50.548;8.778;2022-07-24T03:20:51;7;;;6.3;;
51491;SDS011;37569;50.548;8.778;2022-07-24T03:25:51;8;;;6.4;;
51491;SDS011;37569;50.548;8.778;2022-07-24T03:30:52;6.9;;;6.2;;
51491;SDS011;37569;50.548;8.778;2022-07-24T03:35:53;6.7;;;6.1;;
51491;SDS011;37569;50.548;8.778;2022-07-24T03:40:53;7;;;6.3;;
51491;SDS011;37569;50.548;8.778;2022-07-24T03:45:54;7.9;;;6.3;;
51491;SDS011;37569;50.548;8.778;2022-07-24T03:50:55;7.2;;;6.5;;
51491;SDS011;37569;50.548;8.778;2022-07-24T03:55:55;7.3;;;6.3;;
51491;SDS011;37569;50.548;8.778;2022-07-24T04:00:56;7.2;;;6.4;;
51491;SDS011;37569;50.548;8.778;2022-07-24T04:05:57;6.9;;;6.2;;
51491;SDS011;37569;50.548;8.778;2022-07-24T04:10:57;6.3;;;5.7;;
51491;SDS011;37569;50.548;8.778;2022-07-24T04:15:58;7.1;;;6.4;;
51491;SDS011;37569;50.548;8.778;2022-07-24T04:20:59;6.8;;;6.1;;
51491;SDS011;37569;50.548;8.778;2022-07-24T04:25:59;6.6;;;5.9;;
51491;SDS011;37569;50.548;8.778;2022-07-24T04:31:00;7.2;;;6.5;;
51491;SDS011;37569;50.548;8.778;2022-07-24T04:36:01;6.6;;;6;;
51491;SDS011;37569;50.548;8.778;2022-07-24T04:41:02;6.8;;;6.2;;
51491;SDS011;37569;50.548;8.778;2022-07-24T04:46:02;6.3;;;5.7;;
51491;SDS011;37569;50.548;8.778;2022-07-24T04:51:03;5.5;;;5;;
51491;SDS011;37569;50.548;8.778;2022-07-24T04:56:04;6.1;;;4.9;;
51491;SDS011;37569;50.548;8.778;2022-07-24T05:01:05;5.7;;;4.6;;
51491;SDS011;37569;50.548;8.778;2022-07-24T05:06:06;5.6;;;4.9;;
51491;SDS011;37569;50.548;8.778;2022-07-24T05:11:06;6.4;;;4.9;;
51491;SDS011;37569;50.548;8.778;2022-07-24T05:16:07;5.3;;;4.7;;
51491;SDS011;37569;50.548;8.778;2022-07-24T05:21:08;4.7;;;4;;
51491;SDS011;37569;50.548;8.778;2022-07-24T05:26:09;4.5;;;4.1;;
51491;SDS011;37569;50.548;8.778;2022-07-24T05:31:09;4.6;;;4.1;;
51491;SDS011;37569;50.548;8.778;2022-07-24T05:36:10;5.1;;;4.1;;
51491;SDS011;37569;50.548;8.778;2022-07-24T05:41:11;4.2;;;3.8;;
51491;SDS011;37569;50.548;8.778;2022-07-24T05:46:12;4.4;;;3.6;;
51491;SDS011;37569;50.548;8.778;2022-07-24T05:51:13;4.3;;;3.5;;
51491;SDS011;37569;50.548;8.778;2022-07-24T05:56:14;4.1;;;3.7;;
51491;SDS011;37569;50.548;8.778;2022-07-24T06:01:15;4.5;;;3.9;;
51491;SDS011;37569;50.548;8.778;2022-07-24T06:06:16;6;;;3.9;;
51491;SDS011;37569;50.548;8.778;2022-07-24T06:11:17;4.2;;;3.8;;
51491;SDS011;37569;50.548;8.778;2022-07-24T06:16:19;4;;;3.7;;
51491;SDS011;37569;50.548;8.778;2022-07-24T06:21:20;4.9;;;3.7;;
51491;SDS011;37569;50.548;8.778;2022-07-24T06:26:21;4.7;;;3.7;;
51491;SDS011;37569;50.548;8.778;2022-07-24T06:31:22;4.6;;;3.4;;
51491;SDS011;37569;50.548;8.778;2022-07-24T06:36:23;3.6;;;3.3;;
51491;SDS011;37569;50.548;8.778;2022-07-24T06:41:24;3.8;;;3.3;;
51491;SDS011;37569;50.548;8.778;2022-07-24T06:46:25;3.7;;;3.4;;
51491;SDS011;37569;50.548;8.778;2022-07-24T06:51:26;4;;;3.3;;
51491;SDS011;37569;50.548;8.778;2022-07-24T06:56:27;4.1;;;3.6;;
51491;SDS011;37569;50.548;8.778;2022-07-24T07:01:28;4;;;3.3;;
51491;SDS011;37569;50.548;8.778;2022-07-24T07:06:30;3.8;;;3.3;;
51491;SDS011;37569;50.548;8.778;2022-07-24T07:11:31;5.6;;;3.6;;
51491;SDS011;37569;50.548;8.778;2022-07-24T07:16:32;3.5;;;3.2;;
51491;SDS011;37569;50.548;8.778;2022-07-24T07:21:33;3.8;;;3.1;;
51491;SDS011;37569;50.548;8.778;2022-07-24T07:26:34;4.6;;;3.6;;
51491;SDS011;37569;50.548;8.778;2022-07-24T07:31:36;4.9;;;3.4;;
51491;SDS011;37569;50.548;8.778;2022-07-24T07:36:37;4.2;;;3.6;;
51491;SDS011;37569;50.548;8.778;2022-07-24T07:41:38;4.2;;;3.5;;
51491;SDS011;37569;50.548;8.778;2022-07-24T07:46:39;4;;;3.3;;
51491;SDS011;37569;50.548;8.778;2022-07-24T07:51:41;4;;;3.2;;
51491;SDS011;37569;50.548;8.778;2022-07-24T07:56:42;4.2;;;3.7;;
51491;SDS011;37569;50.548;8.778;2022-07-24T08:01:43;4.2;;;3.6;;
51491;SDS011;37569;50.548;8.778;2022-07-24T08:06:44;3.7;;;3.4;;
51491;SDS011;37569;50.548;8.778;2022-07-24T08:11:46;4.3;;;3.5;;
51491;SDS011;37569;50.548;8.778;2022-07-24T08:16:47;4.6;;;3.6;;
51491;SDS011;37569;50.548;8.778;2022-07-24T08:21:48;3.9;;;3.5;;
51491;SDS011;37569;50.548;8.778;2022-07-24T08:26:49;3.8;;;3.5;;
51491;SDS011;37569;50.548;8.778;2022-07-24T08:31:51;3.7;;;3.4;;
51491;SDS011;37569;50.548;8.778;2022-07-24T08:36:52;4.1;;;3.6;;
51491;SDS011;37569;50.548;8.778;2022-07-24T08:41:53;4.4;;;3.5;;
51491;SDS011;37569;50.548;8.778;2022-07-24T08:46:55;4.4;;;3.5;;
51491;SDS011;37569;50.548;8.778;2022-07-24T08:51:56;4;;;3.6;;
51491;SDS011;37569;50.548;8.778;2022-07-24T08:56:57;3.8;;;3.5;;
51491;SDS011;37569;50.548;8.778;2022-07-24T09:01:58;4;;;3.6;;
51491;SDS011;37569;50.548;8.778;2022-07-24T09:07:00;5.5;;;3.9;;
51491;SDS011;37569;50.548;8.778;2022-07-24T09:12:03;4.1;;;3.7;;
51491;SDS011;37569;50.548;8.778;2022-07-24T09:17:03;4.7;;;3.9;;
51491;SDS011;37569;50.548;8.778;2022-07-24T09:22:04;4.3;;;3.7;;
51491;SDS011;37569;50.548;8.778;2022-07-24T09:27:05;5;;;3.9;;
51491;SDS011;37569;50.548;8.778;2022-07-24T09:32:06;4.7;;;4.2;;
51491;SDS011;37569;50.548;8.778;2022-07-24T09:37:08;4.6;;;4.2;;
51491;SDS011;37569;50.548;8.778;2022-07-24T09:42:10;4.6;;;4;;
51491;SDS011;37569;50.548;8.778;2022-07-24T09:47:11;4.6;;;4.2;;
51491;SDS011;37569;50.548;8.778;2022-07-24T09:52:13;5;;;4.5;;
51491;SDS011;37569;50.548;8.778;2022-07-24T09:57:14;5.2;;;4.5;;
51491;SDS011;37569;50.548;8.778;2022-07-24T10:02:15;5.1;;;4.4;;
51491;SDS011;37569;50.548;8.778;2022-07-24T10:07:20;4.4;;;4;;
51491;SDS011;37569;50.548;8.778;2022-07-24T10:12:19;4.9;;;4.4;;
51491;SDS011;37569;50.548;8.778;2022-07-24T10:17:19;5.4;;;4.5;;
51491;SDS011;37569;50.548;8.778;2022-07-24T10:22:21;5;;;4.5;;
51491;SDS011;37569;50.548;8.778;2022-07-24T10:27:23;4.9;;;4.4;;
51491;SDS011;37569;50.548;8.778;2022-07-24T10:32:24;5.2;;;4.7;;
51491;SDS011;37569;50.548;8.778;2022-07-24T10:37:26;4.6;;;4.2;;
51491;SDS011;37569;50.548;8.778;2022-07-24T10:42:26;5;;;4.6;;
51491;SDS011;37569;50.548;8.778;2022-07-24T10:47:27;5.8;;;4.4;;
51491;SDS011;37569;50.548;8.778;2022-07-24T10:52:30;4.8;;;4.3;;
51491;SDS011;37569;50.548;8.778;2022-07-24T10:57:46;6.3;;;4.7;;
51491;SDS011;37569;50.548;8.778;2022-07-24T11:02:31;5.7;;;4.6;;
51491;SDS011;37569;50.548;8.778;2022-07-24T11:07:33;4.9;;;4.3;;
51491;SDS011;37569;50.548;8.778;2022-07-24T11:12:40;6.3;;;4.7;;
51491;SDS011;37569;50.548;8.778;2022-07-24T11:17:36;5;;;4.3;;
51491;SDS011;37569;50.548;8.778;2022-07-24T11:22:39;4.9;;;4.5;;
51491;SDS011;37569;50.548;8.778;2022-07-24T11:27:42;6.7;;;4.6;;
51491;SDS011;37569;50.548;8.778;2022-07-24T11:32:40;5.5;;;4.9;;
51491;SDS011;37569;50.548;8.778;2022-07-24T11:37:41;5.1;;;4.4;;
51491;SDS011;37569;50.548;8.778;2022-07-24T11:42:42;5.2;;;4.3;;
51491;SDS011;37569;50.548;8.778;2022-07-24T11:47:45;5.1;;;4.6;;
51491;SDS011;37569;50.548;8.778;2022-07-24T11:52:45;5.1;;;4.6;;
51491;SDS011;37569;50.548;8.778;2022-07-24T11:57:48;5.6;;;4.4;;
51491;SDS011;37569;50.548;8.778;2022-07-24T12:02:48;5.7;;;4.6;;
51491;SDS011;37569;50.548;8.778;2022-07-24T12:07:49;5;;;4.4;;
51491;SDS011;37569;50.548;8.778;2022-07-24T12:12:51;5.5;;;4.4;;
51491;SDS011;37569;50.548;8.778;2022-07-24T12:17:52;5.9;;;4.4;;
51491;SDS011;37569;50.548;8.778;2022-07-24T12:22:54;5.7;;;4.2;;
51491;SDS011;37569;50.548;8.778;2022-07-24T12:28:03;4.8;;;4.4;;
51491;SDS011;37569;50.548;8.778;2022-07-24T12:32:57;4.8;;;4.4;;
51491;SDS011;37569;50.548;8.778;2022-07-24T12:37:58;5.3;;;4.6;;
51491;SDS011;37569;50.548;8.778;2022-07-24T12:43:00;4.6;;;4.2;;
51491;SDS011;37569;50.548;8.778;2022-07-24T12:48:17;5.9;;;5.3;;
51491;SDS011;37569;50.548;8.778;2022-07-24T12:53:02;4.8;;;4.4;;
51491;SDS011;37569;50.548;8.778;2022-07-24T12:58:03;5;;;4.5;;
51491;SDS011;37569;50.548;8.778;2022-07-24T13:03:04;4.8;;;4.4;;
51491;SDS011;37569;50.548;8.778;2022-07-24T13:08:06;5;;;4.6;;
51491;SDS011;37569;50.548;8.778;2022-07-24T13:13:07;6;;;4.4;;
51491;SDS011;37569;50.548;8.778;2022-07-24T13:18:08;4.9;;;4.5;;
51491;SDS011;37569;50.548;8.778;2022-07-24T13:23:10;5;;;4.5;;
51491;SDS011;37569;50.548;8.778;2022-07-24T13:28:11;4.7;;;4.3;;
51491;SDS011;37569;50.548;8.778;2022-07-24T13:33:13;5;;;4.6;;
51491;SDS011;37569;50.548;8.778;2022-07-24T13:38:14;4.9;;;4.5;;
51491;SDS011;37569;50.548;8.778;2022-07-24T13:43:15;4.8;;;4.4;;
51491;SDS011;37569;50.548;8.778;2022-07-24T13:48:17;5.1;;;4.7;;
51491;SDS011;37569;50.548;8.778;2022-07-24T13:53:18;5.9;;;4.9;;
51491;SDS011;37569;50.548;8.778;2022-07-24T13:58:19;5.1;;;4.7;;
51491;SDS011;37569;50.548;8.778;2022-07-24T14:03:21;5.1;;;4.6;;
51491;SDS011;37569;50.548;8.778;2022-07-24T14:08:22;5;;;4.5;;
51491;SDS011;37569;50.548;8.778;2022-07-24T14:13:24;4.8;;;4.3;;
51491;SDS011;37569;50.548;8.778;2022-07-24T14:18:25;5;;;4.5;;
51491;SDS011;37569;50.548;8.778;2022-07-24T14:23:26;5;;;4.5;;
51491;SDS011;37569;50.548;8.778;2022-07-24T14:28:28;6.1;;;4.7;;
51491;SDS011;37569;50.548;8.778;2022-07-24T14:33:29;5;;;4.5;;
51491;SDS011;37569;50.548;8.778;2022-07-24T14:38:30;4.8;;;4.4;;
51491;SDS011;37569;50.548;8.778;2022-07-24T14:43:32;5.3;;;4.8;;
51491;SDS011;37569;50.548;8.778;2022-07-24T14:48:33;5.7;;;5.2;;
51491;SDS011;37569;50.548;8.778;2022-07-24T14:53:34;5.2;;;4.7;;
51491;SDS011;37569;50.548;8.778;2022-07-24T14:58:36;5.2;;;4.8;;
51491;SDS011;37569;50.548;8.778;2022-07-24T15:03:37;5.2;;;4.8;;
51491;SDS011;37569;50.548;8.778;2022-07-24T15:08:38;5.6;;;5.1;;
51491;SDS011;37569;50.548;8.778;2022-07-24T15:13:40;5.2;;;4.7;;
51491;SDS011;37569;50.548;8.778;2022-07-24T15:18:41;5.6;;;4.7;;
51491;SDS011;37569;50.548;8.778;2022-07-24T15:23:43;5.3;;;4.9;;
51491;SDS011;37569;50.548;8.778;2022-07-24T15:28:44;5.4;;;4.9;;
51491;SDS011;37569;50.548;8.778;2022-07-24T15:33:45;5.5;;;5;;
51491;SDS011;37569;50.548;8.778;2022-07-24T15:38:46;5.3;;;4.8;;
51491;SDS011;37569;50.548;8.778;2022-07-24T15:43:48;5.2;;;4.7;;
51491;SDS011;37569;50.548;8.778;2022-07-24T15:48:49;6.2;;;4.9;;
51491;SDS011;37569;50.548;8.778;2022-07-24T15:53:51;5.4;;;4.8;;
51491;SDS011;37569;50.548;8.778;2022-07-24T15:58:52;5.1;;;4.6;;
51491;SDS011;37569;50.548;8.778;2022-07-24T16:03:53;5;;;4.5;;
51491;SDS011;37569;50.548;8.778;2022-07-24T16:08:54;5;;;4.6;;
51491;SDS011;37569;50.548;8.778;2022-07-24T16:13:56;7.8;;;4.7;;
51491;SDS011;37569;50.548;8.778;2022-07-24T16:18:57;4.8;;;4.4;;
51491;SDS011;37569;50.548;8.778;2022-07-24T16:23:58;5.4;;;4.9;;
51491;SDS011;37569;50.548;8.778;2022-07-24T16:29:00;5.8;;;4.7;;
51491;SDS011;37569;50.548;8.778;2022-07-24T16:34:01;6.3;;;5.4;;
51491;SDS011;37569;50.548;8.778;2022-07-24T16:39:03;6;;;4.6;;
51491;SDS011;37569;50.548;8.778;2022-07-24T16:44:04;5.6;;;5.1;;
51491;SDS011;37569;50.548;8.778;2022-07-24T16:49:05;5.5;;;4.8;;
51491;SDS011;37569;50.548;8.778;2022-07-24T16:54:06;5.8;;;4.9;;
51491;SDS011;37569;50.548;8.778;2022-07-24T16:59:08;5.2;;;4.8;;
51491;SDS011;37569;50.548;8.778;2022-07-24T17:04:09;5.7;;;5.2;;
51491;SDS011;37569;50.548;8.778;2022-07-24T17:09:10;5.1;;;4.6;;
51491;SDS011;37569;50.548;8.778;2022-07-24T17:14:12;6.3;;;5.3;;
51491;SDS011;37569;50.548;8.778;2022-07-24T17:19:13;5.9;;;5.3;;
51491;SDS011;37569;50.548;8.778;2022-07-24T17:24:14;5.6;;;5.1;;
51491;SDS011;37569;50.548;8.778;2022-07-24T17:29:15;5.5;;;5;;
51491;SDS011;37569;50.548;8.778;2022-07-24T17:34:17;6.2;;;5.6;;
51491;SDS011;37569;50.548;8.778;2022-07-24T17:39:18;5.8;;;5.3;;
51491;SDS011;37569;50.548;8.778;2022-07-24T17:44:19;5.9;;;5.3;;
51491;SDS011;37569;50.548;8.778;2022-07-24T17:49:21;5.6;;;5.1;;
51491;SDS011;37569;50.548;8.778;2022-07-24T17:54:22;6.1;;;5.5;;
51491;SDS011;37569;50.548;8.778;2022-07-24T17:59:23;6;;;5.4;;
51491;SDS011;37569;50.548;8.778;2022-07-24T18:04:24;6.5;;;5.9;;
51491;SDS011;37569;50.548;8.778;2022-07-24T18:09:26;5.9;;;5.3;;
51491;SDS011;37569;50.548;8.778;2022-07-24T18:14:27;6.4;;;5.6;;
51491;SDS011;37569;50.548;8.778;2022-07-24T18:19:28;6.8;;;6.2;;
51491;SDS011;37569;50.548;8.778;2022-07-24T18:24:29;6.2;;;5.6;;
51491;SDS011;37569;50.548;8.778;2022-07-24T18:29:31;6.6;;;5.9;;
51491;SDS011;37569;50.548;8.778;2022-07-24T18:34:32;6.5;;;5.9;;
51491;SDS011;37569;50.548;8.778;2022-07-24T18:39:33;7;;;5.8;;
51491;SDS011;37569;50.548;8.778;2022-07-24T18:44:34;6.5;;;5.5;;
51491;SDS011;37569;50.548;8.778;2022-07-24T18:49:35;6.4;;;5.8;;
51491;SDS011;37569;50.548;8.778;2022-07-24T18:54:36;9.1;;;6.5;;
51491;SDS011;37569;50.548;8.778;2022-07-24T18:59:38;7;;;6.3;;
51491;SDS011;37569;50.548;8.778;2022-07-24T19:04:39;6.9;;;6.3;;
51491;SDS011;37569;50.548;8.778;2022-07-24T19:09:40;6.5;;;5.9;;
51491;SDS011;37569;50.548;8.778;2022-07-24T19:14:41;7.3;;;6.1;;
51491;SDS011;37569;50.548;8.778;2022-07-24T19:19:42;6.5;;;5.7;;
51491;SDS011;37569;50.548;8.778;2022-07-24T19:24:43;6.7;;;6.1;;
51491;SDS011;37569;50.548;8.778;2022-07-24T19:29:44;6.8;;;6.2;;
51491;SDS011;37569;50.548;8.778;2022-07-24T19:34:46;6.8;;;6.2;;
51491;SDS011;37569;50.548;8.778;2022-07-24T19:39:47;7.3;;;6.6;;
51491;SDS011;37569;50.548;8.778;2022-07-24T19:44:48;7.1;;;6.4;;
51491;SDS011;37569;50.548;8.778;2022-07-24T19:49:49;7.2;;;6.5;;
51491;SDS011;37569;50.548;8.778;2022-07-24T19:54:50;7.5;;;6.7;;
51491;SDS011;37569;50.548;8.778;2022-07-24T19:59:51;7.6;;;6.4;;
51491;SDS011;37569;50.548;8.778;2022-07-24T20:04:52;8.4;;;6.8;;
51491;SDS011;37569;50.548;8.778;2022-07-24T20:09:53;7.4;;;6.3;;
51491;SDS011;37569;50.548;8.778;2022-07-24T20:14:54;8.4;;;6.8;;
51491;SDS011;37569;50.548;8.778;2022-07-24T20:19:55;7.8;;;6.7;;
51491;SDS011;37569;50.548;8.778;2022-07-24T20:24:56;8;;;6.5;;
51491;SDS011;37569;50.548;8.778;2022-07-24T20:29:57;8.2;;;6.7;;
51491;SDS011;37569;50.548;8.778;2022-07-24T20:34:58;7.4;;;6.6;;
51491;SDS011;37569;50.548;8.778;2022-07-24T20:40:00;9.3;;;7.4;;
51491;SDS011;37569;50.548;8.778;2022-07-24T20:45:01;8;;;7.2;;
51491;SDS011;37569;50.548;8.778;2022-07-24T20:50:02;7.8;;;7;;
51491;SDS011;37569;50.548;8.778;2022-07-24T20:55:03;8.1;;;6.7;;
51491;SDS011;37569;50.548;8.778;2022-07-24T21:00:04;9.7;;;7.6;;
51491;SDS011;37569;50.548;8.778;2022-07-24T21:05:05;9.3;;;7.5;;
51491;SDS011;37569;50.548;8.778;2022-07-24T21:10:06;9.7;;;7.8;;
51491;SDS011;37569;50.548;8.778;2022-07-24T21:15:07;8.4;;;7.5;;
51491;SDS011;37569;50.548;8.778;2022-07-24T21:20:08;9;;;7.2;;
51491;SDS011;37569;50.548;8.778;2022-07-24T21:25:08;8;;;7.2;;
51491;SDS011;37569;50.548;8.778;2022-07-24T21:30:10;8;;;7.2;;
51491;SDS011;37569;50.548;8.778;2022-07-24T21:35:11;7.6;;;6.9;;
51491;SDS011;37569;50.548;8.778;2022-07-24T21:40:12;7.6;;;6.9;;
51491;SDS011;37569;50.548;8.778;2022-07-24T21:45:12;7.8;;;7.1;;
51491;SDS011;37569;50.548;8.778;2022-07-24T21:50:13;7.9;;;6.7;;
51491;SDS011;37569;50.548;8.778;2022-07-24T21:55:14;8.7;;;7.2;;
51491;SDS011;37569;50.548;8.778;2022-07-24T22:00:15;7.8;;;7.1;;
51491;SDS011;37569;50.548;8.778;2022-07-24T22:05:16;8.4;;;6.8;;
51491;SDS011;37569;50.548;8.778;2022-07-24T22:10:17;10;;;6.9;;
51491;SDS011;37569;50.548;8.778;2022-07-24T22:15:18;7.4;;;6.6;;
51491;SDS011;37569;50.548;8.778;2022-07-24T22:20:19;8.8;;;6.5;;
51491;SDS011;37569;50.548;8.778;2022-07-24T22:25:20;8.1;;;6.4;;
51491;SDS011;37569;50.548;8.778;2022-07-24T22:30:21;7.5;;;6.8;;
51491;SDS011;37569;50.548;8.778;2022-07-24T22:35:22;8.1;;;7;;
51491;SDS011;37569;50.548;8.778;2022-07-24T22:40:23;7.5;;;6.7;;
51491;SDS011;37569;50.548;8.778;2022-07-24T22:45:24;7.4;;;6.6;;
51491;SDS011;37569;50.548;8.778;2022-07-24T22:50:25;8;;;6.8;;
51491;SDS011;37569;50.548;8.778;2022-07-24T22:55:26;7.3;;;6.6;;
51491;SDS011;37569;50.548;8.778;2022-07-24T23:00:26;8.4;;;6.8;;
51491;SDS011;37569;50.548;8.778;2022-07-24T23:05:27;7.8;;;7;;
51491;SDS011;37569;50.548;8.778;2022-07-24T23:10:28;7.7;;;6.8;;
51491;SDS011;37569;50.548;8.778;2022-07-24T23:15:29;7.9;;;6.6;;
51491;SDS011;37569;50.548;8.778;2022-07-24T23:20:30;7.5;;;6.8;;
51491;SDS011;37569;50.548;8.778;2022-07-24T23:25:31;7.5;;;6.8;;
51491;SDS011;37569;50.548;8.778;2022-07-24T23:30:31;7.7;;;6.9;;
51491;SDS011;37569;50.548;8.778;2022-07-24T23:35:32;7.5;;;6.8;;
51491;SDS011;37569;50.548;8.778;2022-07-24T23:40:33;8.8;;;7;;
51491;SDS011;37569;50.548;8.778;2022-07-24T23:45:34;8.4;;;6.9;;
51491;SDS011;37569;50.548;8.778;2022-07-24T23:50:35;7.7;;;6.9;;
51491;SDS011;37569;50.548;8.778;2022-07-24T23:55:36;7.9;;;7.1;;
